Flight Track Log - Related Links

Times and Time Zones

All times are in EDT time to prevent confusion due to time zone crossing. See the BJS542 flight status page for this flight to view local times or setup timezone preferences in your user account.

Time Position Orientation Groundspeed Altitude Reporting Facility
EDT Latitude Longitude Course Direction KTS MPH feet Rate Location/Type
Tue 06:17:20 PM 42.4947 -83.2161 277° West 261 300 9,900  Level Cleveland Center
Tue 06:18:10 PM 42.5014 -83.2869 277° West 284 327 10,000 55 Climbing Cleveland Center
Tue 06:19:10 PM 42.4925 -83.3992 264° West 309 356 10,000  Level Cleveland Center
Tue 06:20:10 PM 42.4831 -83.5225 264° West 302 348 10,000 100 Level Cleveland Center
Tue 06:21:10 PM 42.4739 -83.6375 264° West 302 348 10,200 1,500 Climbing Cleveland Center
Tue 06:22:10 PM 42.4625 -83.7497 262° West 305 351 13,000 3,000 Climbing Cleveland Center
Tue 06:23:10 PM 42.4528 -83.8675 264° West 310 357 16,200 3,600 Climbing Cleveland Center
Tue 06:24:10 PM 42.4433 -83.9822 264° West 310 357 20,200 3,800 Climbing Cleveland Center
Tue 06:25:10 PM 42.4333 -84.1056 264° West 316 364 23,800 2,850 Climbing Cleveland Center
Tue 06:26:10 PM 42.4272 -84.2319 266° West 331 381 25,900 810 Climbing Cleveland Center
Tue 06:27:53 PM 42.4347 -84.4506 273° West 344 396 26,000 36 Climbing Chicago Center
Tue 06:28:55 PM 42.4378 -84.5819 272° West 349 402 26,000  Level Chicago Center
Tue 06:29:57 PM 42.4411 -84.7150 272° West 353 406 26,000  Level Chicago Center
Tue 06:30:59 PM 42.4453 -84.8519 272° West 361 415 26,000  Level Chicago Center
Tue 06:32:01 PM 42.4481 -85.0006 272° West 387 445 26,000  Level Chicago Center
Tue 06:33:03 PM 42.4506 -85.1478 271° West 391 450 26,000  Level Chicago Center
Tue 06:34:05 PM 42.4536 -85.3250 271° West 391 450 26,000  Level Chicago Center
Tue 06:35:07 PM 42.4564 -85.4725 272° West 392 451 26,000  Level Chicago Center
Tue 06:36:09 PM 42.4581 -85.6200 271° West 392 451 26,000 -96 Level Chicago Center
Tue 06:37:12 PM 42.4578 -85.7686 270° West 394 453 25,800 -864 Descending Chicago Center
Tue 06:38:14 PM 42.4583 -85.9167 270° West 392 451 24,200 -1,500 Descending Chicago Center
Tue 06:39:16 PM 42.4581 -86.0636 270° West 391 450 22,700 -1,452 Descending Chicago Center
Tue 06:40:18 PM 42.4581 -86.2100 270° West 389 448 21,200 -1,306 Descending Chicago Center
Tue 06:41:20 PM 42.4589 -86.3836 270° West 384 442 20,000 -677 Descending Chicago Center
Tue 06:42:22 PM 42.4572 -86.5217 269° West 370 426 19,800 -242 Descending Chicago Center
Tue 06:43:24 PM 42.4575 -86.6594 270° West 367 422 19,500 -968 Descending Chicago Center
Tue 06:44:26 PM 42.4581 -86.7944 270° West 372 428 17,800 -1,742 Descending Chicago Center
Tue 06:45:28 PM 42.4572 -86.9356 270° West 364 419 15,900 -1,887 Descending Chicago Center
Tue 06:46:30 PM 42.4553 -87.0672 269° West 347 399 13,900 -2,129 Descending Chicago Center
Tue 06:47:32 PM 42.4244 -87.2203 255° West 355 409 11,500 -1,872 Descending Chicago Center
Tue 06:48:35 PM 42.3919 -87.3431 250° West 352 405 10,000 -720 Descending Chicago Center
Tue 06:49:37 PM 42.3611 -87.4553 250° West 346 398 10,000  Level Chicago Center
Tue 06:50:39 PM 42.2928 -87.5797 233° Southwest 353 406 10,000  Level Chicago Center
Tue 06:51:41 PM 42.2147 -87.6658 219° Southwest 362 417 10,000 -435 Level Chicago Center
Tue 06:52:43 PM 42.1486 -87.7336 217° Southwest 300 345 9,100 -1,306 Descending Chicago Center
Tue 06:53:45 PM 42.1033 -87.8194 235° Southwest 286 329 7,300 -1,016 Descending Chicago Center
Tue 06:54:47 PM 42.0672 -87.9097 242° Southwest 277 319 7,000 -387 Descending Chicago Center
Tue 06:55:49 PM 42.0558 -88.0047 261° West 233 268 6,500 -1,033 Descending Chicago Center
Tue 06:56:49 PM 42.0667 -88.0833 281° West 212 244 4,900 -1,190 Descending Chicago TRACON
Tue 06:57:50 PM 42.0333 -88.1333 228° Southwest 194 223 4,100 -893 Descending Chicago TRACON
Tue 06:58:50 PM 41.9833 -88.1167 166° South 197 227 3,100 -600 Descending Chicago TRACON
Tue 06:59:50 PM 41.9667 -88.0500 109° East 179 206 2,900 -700 Descending Chicago TRACON
Tue 07:00:50 PM 41.9667 -88.0000 90° East 174 200 1,700 -1,050 Descending Chicago TRACON
Tue 07:01:50 PM 41.9667 -87.9333 90° East 137 158 800 -900 Descending Chicago TRACON
Tue 07:03:00 PM 41.9667 -87.9000 90° East  Level FlightAware Approximate

Login

Don't have an account? Register now (free) for customized features, flight alerts, and more!